sensor_id;sensor_type;location;lat;lon;timestamp;P1;durP1;ratioP1;P2;durP2;ratioP2
9214;SDS011;4642;51.364;6.788;2022-10-16T00:01:09;14.30;;;3.63;;
9214;SDS011;4642;51.364;6.788;2022-10-16T00:03:37;7.00;;;3.43;;
9214;SDS011;4642;51.364;6.788;2022-10-16T00:06:04;5.67;;;4.10;;
9214;SDS011;4642;51.364;6.788;2022-10-16T00:08:30;7.93;;;3.57;;
9214;SDS011;4642;51.364;6.788;2022-10-16T00:11:00;6.23;;;3.53;;
9214;SDS011;4642;51.364;6.788;2022-10-16T00:13:34;8.57;;;3.90;;
9214;SDS011;4642;51.364;6.788;2022-10-16T00:16:01;7.50;;;4.03;;
9214;SDS011;4642;51.364;6.788;2022-10-16T00:18:28;5.90;;;4.03;;
9214;SDS011;4642;51.364;6.788;2022-10-16T00:20:55;6.37;;;3.80;;
9214;SDS011;4642;51.364;6.788;2022-10-16T00:23:25;15.23;;;4.57;;
9214;SDS011;4642;51.364;6.788;2022-10-16T00:25:55;9.60;;;4.27;;
9214;SDS011;4642;51.364;6.788;2022-10-16T00:28:22;12.13;;;4.23;;
9214;SDS011;4642;51.364;6.788;2022-10-16T00:30:48;6.70;;;3.93;;
9214;SDS011;4642;51.364;6.788;2022-10-16T00:33:13;5.63;;;4.03;;
9214;SDS011;4642;51.364;6.788;2022-10-16T00:35:39;7.60;;;4.50;;
9214;SDS011;4642;51.364;6.788;2022-10-16T00:38:04;5.80;;;4.07;;
9214;SDS011;4642;51.364;6.788;2022-10-16T00:40:30;5.93;;;4.07;;
9214;SDS011;4642;51.364;6.788;2022-10-16T00:42:56;6.67;;;4.57;;
9214;SDS011;4642;51.364;6.788;2022-10-16T00:45:22;6.43;;;4.13;;
9214;SDS011;4642;51.364;6.788;2022-10-16T00:47:47;6.37;;;4.33;;
9214;SDS011;4642;51.364;6.788;2022-10-16T00:50:18;9.60;;;4.60;;
9214;SDS011;4642;51.364;6.788;2022-10-16T00:52:55;10.80;;;4.63;;
9214;SDS011;4642;51.364;6.788;2022-10-16T00:55:22;6.23;;;4.23;;
9214;SDS011;4642;51.364;6.788;2022-10-16T00:57:50;6.30;;;4.00;;
9214;SDS011;4642;51.364;6.788;2022-10-16T01:00:18;6.37;;;3.50;;
9214;SDS011;4642;51.364;6.788;2022-10-16T01:02:51;9.23;;;3.20;;
9214;SDS011;4642;51.364;6.788;2022-10-16T01:05:22;10.07;;;3.07;;
9214;SDS011;4642;51.364;6.788;2022-10-16T01:07:58;7.67;;;3.13;;
9214;SDS011;4642;51.364;6.788;2022-10-16T01:10:35;14.30;;;3.23;;
9214;SDS011;4642;51.364;6.788;2022-10-16T01:13:10;7.47;;;3.10;;
9214;SDS011;4642;51.364;6.788;2022-10-16T01:15:42;8.03;;;3.27;;
9214;SDS011;4642;51.364;6.788;2022-10-16T01:18:25;8.97;;;3.70;;
9214;SDS011;4642;51.364;6.788;2022-10-16T01:21:05;9.77;;;3.70;;
9214;SDS011;4642;51.364;6.788;2022-10-16T01:26:14;6.10;;;3.40;;
9214;SDS011;4642;51.364;6.788;2022-10-16T01:28:55;7.00;;;3.60;;
9214;SDS011;4642;51.364;6.788;2022-10-16T01:31:26;7.23;;;4.10;;
9214;SDS011;4642;51.364;6.788;2022-10-16T01:34:00;14.30;;;5.00;;
9214;SDS011;4642;51.364;6.788;2022-10-16T01:36:50;7.83;;;4.03;;
9214;SDS011;4642;51.364;6.788;2022-10-16T01:39:19;9.87;;;3.60;;
9214;SDS011;4642;51.364;6.788;2022-10-16T01:44:35;9.77;;;3.97;;
9214;SDS011;4642;51.364;6.788;2022-10-16T01:47:03;8.07;;;3.87;;
9214;SDS011;4642;51.364;6.788;2022-10-16T01:49:31;6.67;;;3.77;;
9214;SDS011;4642;51.364;6.788;2022-10-16T01:51:59;15.03;;;3.90;;
9214;SDS011;4642;51.364;6.788;2022-10-16T01:54:30;6.53;;;3.50;;
9214;SDS011;4642;51.364;6.788;2022-10-16T01:56:58;5.93;;;3.30;;
9214;SDS011;4642;51.364;6.788;2022-10-16T01:59:25;6.97;;;3.70;;
9214;SDS011;4642;51.364;6.788;2022-10-16T02:01:59;8.27;;;3.13;;
9214;SDS011;4642;51.364;6.788;2022-10-16T02:04:31;4.90;;;2.73;;
9214;SDS011;4642;51.364;6.788;2022-10-16T02:07:07;10.00;;;3.20;;
9214;SDS011;4642;51.364;6.788;2022-10-16T02:09:33;7.03;;;2.70;;
9214;SDS011;4642;51.364;6.788;2022-10-16T02:12:00;8.87;;;2.53;;
9214;SDS011;4642;51.364;6.788;2022-10-16T02:14:33;6.97;;;2.80;;
9214;SDS011;4642;51.364;6.788;2022-10-16T02:17:09;4.50;;;3.00;;
9214;SDS011;4642;51.364;6.788;2022-10-16T02:19:38;8.70;;;2.73;;
9214;SDS011;4642;51.364;6.788;2022-10-16T02:22:05;8.50;;;2.60;;
9214;SDS011;4642;51.364;6.788;2022-10-16T02:24:51;3.03;;;2.00;;
9214;SDS011;4642;51.364;6.788;2022-10-16T02:27:44;3.87;;;2.20;;
9214;SDS011;4642;51.364;6.788;2022-10-16T02:30:42;5.83;;;1.90;;
9214;SDS011;4642;51.364;6.788;2022-10-16T02:33:15;3.43;;;2.03;;
9214;SDS011;4642;51.364;6.788;2022-10-16T02:35:43;4.43;;;2.00;;
9214;SDS011;4642;51.364;6.788;2022-10-16T02:38:11;4.87;;;2.10;;
9214;SDS011;4642;51.364;6.788;2022-10-16T02:40:39;7.20;;;1.83;;
9214;SDS011;4642;51.364;6.788;2022-10-16T02:43:06;4.23;;;2.13;;
9214;SDS011;4642;51.364;6.788;2022-10-16T02:45:32;3.60;;;2.00;;
9214;SDS011;4642;51.364;6.788;2022-10-16T02:47:58;5.97;;;2.20;;
9214;SDS011;4642;51.364;6.788;2022-10-16T02:50:23;4.70;;;2.00;;
9214;SDS011;4642;51.364;6.788;2022-10-16T02:52:50;3.53;;;2.00;;
9214;SDS011;4642;51.364;6.788;2022-10-16T02:55:15;2.30;;;1.97;;
9214;SDS011;4642;51.364;6.788;2022-10-16T02:57:41;6.77;;;1.80;;
9214;SDS011;4642;51.364;6.788;2022-10-16T03:00:08;2.53;;;1.60;;
9214;SDS011;4642;51.364;6.788;2022-10-16T03:02:36;7.40;;;2.40;;
9214;SDS011;4642;51.364;6.788;2022-10-16T03:05:02;3.50;;;1.67;;
9214;SDS011;4642;51.364;6.788;2022-10-16T03:07:28;3.27;;;2.00;;
9214;SDS011;4642;51.364;6.788;2022-10-16T03:09:53;5.67;;;1.77;;
9214;SDS011;4642;51.364;6.788;2022-10-16T03:12:20;3.10;;;1.63;;
9214;SDS011;4642;51.364;6.788;2022-10-16T03:14:46;7.20;;;1.60;;
9214;SDS011;4642;51.364;6.788;2022-10-16T03:17:11;4.47;;;1.80;;
9214;SDS011;4642;51.364;6.788;2022-10-16T03:19:38;2.33;;;1.60;;
9214;SDS011;4642;51.364;6.788;2022-10-16T03:22:03;3.90;;;1.90;;
9214;SDS011;4642;51.364;6.788;2022-10-16T03:24:29;2.90;;;1.40;;
9214;SDS011;4642;51.364;6.788;2022-10-16T03:26:55;2.47;;;1.67;;
9214;SDS011;4642;51.364;6.788;2022-10-16T03:29:20;3.47;;;1.73;;
9214;SDS011;4642;51.364;6.788;2022-10-16T03:31:46;2.10;;;1.40;;
9214;SDS011;4642;51.364;6.788;2022-10-16T03:34:13;4.20;;;1.50;;
9214;SDS011;4642;51.364;6.788;2022-10-16T03:36:38;2.47;;;1.80;;
9214;SDS011;4642;51.364;6.788;2022-10-16T03:39:04;3.87;;;1.40;;
9214;SDS011;4642;51.364;6.788;2022-10-16T03:41:30;5.53;;;1.50;;
9214;SDS011;4642;51.364;6.788;2022-10-16T03:43:55;2.53;;;1.40;;
9214;SDS011;4642;51.364;6.788;2022-10-16T03:46:21;5.77;;;1.63;;
9214;SDS011;4642;51.364;6.788;2022-10-16T03:48:46;2.63;;;1.33;;
9214;SDS011;4642;51.364;6.788;2022-10-16T03:51:12;4.37;;;1.40;;
9214;SDS011;4642;51.364;6.788;2022-10-16T03:53:38;2.80;;;1.60;;
9214;SDS011;4642;51.364;6.788;2022-10-16T03:56:03;2.40;;;1.20;;
9214;SDS011;4642;51.364;6.788;2022-10-16T03:58:29;1.40;;;1.30;;
9214;SDS011;4642;51.364;6.788;2022-10-16T04:00:54;1.70;;;1.37;;
9214;SDS011;4642;51.364;6.788;2022-10-16T04:03:20;2.00;;;1.37;;
9214;SDS011;4642;51.364;6.788;2022-10-16T04:05:46;2.47;;;1.73;;
9214;SDS011;4642;51.364;6.788;2022-10-16T04:08:12;3.43;;;1.23;;
9214;SDS011;4642;51.364;6.788;2022-10-16T04:10:37;5.00;;;1.37;;
9214;SDS011;4642;51.364;6.788;2022-10-16T04:13:03;3.23;;;1.13;;
9214;SDS011;4642;51.364;6.788;2022-10-16T04:15:28;1.83;;;1.40;;
9214;SDS011;4642;51.364;6.788;2022-10-16T04:17:54;4.07;;;1.30;;
9214;SDS011;4642;51.364;6.788;2022-10-16T04:20:19;2.47;;;1.40;;
9214;SDS011;4642;51.364;6.788;2022-10-16T04:22:45;2.13;;;1.20;;
9214;SDS011;4642;51.364;6.788;2022-10-16T04:25:11;3.93;;;1.20;;
9214;SDS011;4642;51.364;6.788;2022-10-16T04:27:36;2.67;;;1.67;;
9214;SDS011;4642;51.364;6.788;2022-10-16T04:30:03;3.70;;;1.47;;
9214;SDS011;4642;51.364;6.788;2022-10-16T04:32:29;2.27;;;1.30;;
9214;SDS011;4642;51.364;6.788;2022-10-16T04:34:55;2.47;;;1.87;;
9214;SDS011;4642;51.364;6.788;2022-10-16T04:37:24;3.10;;;2.00;;
9214;SDS011;4642;51.364;6.788;2022-10-16T04:39:51;2.87;;;1.43;;
9214;SDS011;4642;51.364;6.788;2022-10-16T04:42:18;2.03;;;1.70;;
9214;SDS011;4642;51.364;6.788;2022-10-16T04:44:43;6.93;;;1.40;;
9214;SDS011;4642;51.364;6.788;2022-10-16T04:47:09;5.20;;;1.70;;
9214;SDS011;4642;51.364;6.788;2022-10-16T04:49:34;2.50;;;1.33;;
9214;SDS011;4642;51.364;6.788;2022-10-16T04:52:00;5.90;;;1.63;;
9214;SDS011;4642;51.364;6.788;2022-10-16T04:54:25;3.73;;;1.73;;
9214;SDS011;4642;51.364;6.788;2022-10-16T04:56:51;2.07;;;1.70;;
9214;SDS011;4642;51.364;6.788;2022-10-16T04:59:17;2.37;;;1.50;;
9214;SDS011;4642;51.364;6.788;2022-10-16T05:01:44;2.07;;;1.87;;
9214;SDS011;4642;51.364;6.788;2022-10-16T05:04:10;3.30;;;1.50;;
9214;SDS011;4642;51.364;6.788;2022-10-16T05:06:36;3.17;;;1.83;;
9214;SDS011;4642;51.364;6.788;2022-10-16T05:09:03;6.60;;;3.07;;
9214;SDS011;4642;51.364;6.788;2022-10-16T05:11:29;2.00;;;1.80;;
9214;SDS011;4642;51.364;6.788;2022-10-16T05:13:55;4.33;;;1.80;;
9214;SDS011;4642;51.364;6.788;2022-10-16T05:16:21;6.20;;;2.07;;
9214;SDS011;4642;51.364;6.788;2022-10-16T05:18:46;6.13;;;1.90;;
9214;SDS011;4642;51.364;6.788;2022-10-16T05:21:12;2.53;;;2.10;;
9214;SDS011;4642;51.364;6.788;2022-10-16T05:23:37;2.17;;;2.00;;
9214;SDS011;4642;51.364;6.788;2022-10-16T05:26:03;7.90;;;2.27;;
9214;SDS011;4642;51.364;6.788;2022-10-16T05:28:29;4.10;;;1.67;;
9214;SDS011;4642;51.364;6.788;2022-10-16T05:30:55;6.47;;;2.00;;
9214;SDS011;4642;51.364;6.788;2022-10-16T05:33:22;3.10;;;2.00;;
9214;SDS011;4642;51.364;6.788;2022-10-16T05:35:49;3.23;;;1.80;;
9214;SDS011;4642;51.364;6.788;2022-10-16T05:38:15;4.50;;;1.70;;
9214;SDS011;4642;51.364;6.788;2022-10-16T05:40:41;2.23;;;1.70;;
9214;SDS011;4642;51.364;6.788;2022-10-16T05:43:07;4.27;;;1.67;;
9214;SDS011;4642;51.364;6.788;2022-10-16T05:45:33;2.40;;;1.93;;
9214;SDS011;4642;51.364;6.788;2022-10-16T05:47:59;2.17;;;1.73;;
9214;SDS011;4642;51.364;6.788;2022-10-16T05:50:25;2.03;;;1.80;;
9214;SDS011;4642;51.364;6.788;2022-10-16T05:52:51;4.97;;;2.10;;
9214;SDS011;4642;51.364;6.788;2022-10-16T05:55:17;3.17;;;1.80;;
9214;SDS011;4642;51.364;6.788;2022-10-16T05:57:43;4.23;;;2.03;;
9214;SDS011;4642;51.364;6.788;2022-10-16T06:00:09;4.50;;;1.60;;
9214;SDS011;4642;51.364;6.788;2022-10-16T06:02:35;6.73;;;2.13;;
9214;SDS011;4642;51.364;6.788;2022-10-16T06:05:00;5.63;;;1.90;;
9214;SDS011;4642;51.364;6.788;2022-10-16T06:07:26;3.83;;;1.70;;
9214;SDS011;4642;51.364;6.788;2022-10-16T06:09:52;2.53;;;1.90;;
9214;SDS011;4642;51.364;6.788;2022-10-16T06:12:18;4.17;;;1.40;;
9214;SDS011;4642;51.364;6.788;2022-10-16T06:14:44;3.27;;;1.40;;
9214;SDS011;4642;51.364;6.788;2022-10-16T06:17:12;3.10;;;1.63;;
9214;SDS011;4642;51.364;6.788;2022-10-16T06:19:38;6.07;;;1.67;;
9214;SDS011;4642;51.364;6.788;2022-10-16T06:22:04;2.23;;;1.83;;
9214;SDS011;4642;51.364;6.788;2022-10-16T06:24:29;5.27;;;1.80;;
9214;SDS011;4642;51.364;6.788;2022-10-16T06:26:55;2.40;;;1.80;;
9214;SDS011;4642;51.364;6.788;2022-10-16T06:29:20;3.07;;;1.70;;
9214;SDS011;4642;51.364;6.788;2022-10-16T06:31:46;4.13;;;1.60;;
9214;SDS011;4642;51.364;6.788;2022-10-16T06:34:12;2.97;;;1.60;;
9214;SDS011;4642;51.364;6.788;2022-10-16T06:36:38;2.00;;;1.80;;
9214;SDS011;4642;51.364;6.788;2022-10-16T06:39:04;2.93;;;1.67;;
9214;SDS011;4642;51.364;6.788;2022-10-16T06:41:32;5.20;;;1.60;;
9214;SDS011;4642;51.364;6.788;2022-10-16T06:43:58;2.33;;;1.57;;
9214;SDS011;4642;51.364;6.788;2022-10-16T06:46:24;1.70;;;1.60;;
9214;SDS011;4642;51.364;6.788;2022-10-16T06:48:50;4.43;;;2.03;;
9214;SDS011;4642;51.364;6.788;2022-10-16T06:51:17;2.97;;;1.70;;
9214;SDS011;4642;51.364;6.788;2022-10-16T06:53:45;1.93;;;1.73;;
9214;SDS011;4642;51.364;6.788;2022-10-16T06:56:19;2.57;;;1.87;;
9214;SDS011;4642;51.364;6.788;2022-10-16T06:58:49;2.97;;;1.73;;
9214;SDS011;4642;51.364;6.788;2022-10-16T07:01:16;3.77;;;1.90;;
9214;SDS011;4642;51.364;6.788;2022-10-16T07:03:44;4.70;;;1.67;;
9214;SDS011;4642;51.364;6.788;2022-10-16T07:06:11;3.50;;;1.67;;
9214;SDS011;4642;51.364;6.788;2022-10-16T07:08:42;3.10;;;1.87;;
9214;SDS011;4642;51.364;6.788;2022-10-16T07:11:11;3.13;;;1.67;;
9214;SDS011;4642;51.364;6.788;2022-10-16T07:13:39;4.90;;;2.10;;
9214;SDS011;4642;51.364;6.788;2022-10-16T07:18:36;5.47;;;1.73;;
9214;SDS011;4642;51.364;6.788;2022-10-16T07:21:07;2.80;;;1.80;;
9214;SDS011;4642;51.364;6.788;2022-10-16T07:23:35;2.83;;;1.50;;
9214;SDS011;4642;51.364;6.788;2022-10-16T07:26:00;3.23;;;1.93;;
9214;SDS011;4642;51.364;6.788;2022-10-16T07:28:26;7.83;;;1.83;;
9214;SDS011;4642;51.364;6.788;2022-10-16T07:30:53;3.90;;;1.63;;
9214;SDS011;4642;51.364;6.788;2022-10-16T07:33:18;3.10;;;2.20;;
9214;SDS011;4642;51.364;6.788;2022-10-16T07:35:48;4.10;;;1.90;;
9214;SDS011;4642;51.364;6.788;2022-10-16T07:38:14;2.50;;;1.70;;
9214;SDS011;4642;51.364;6.788;2022-10-16T07:40:40;3.67;;;1.70;;
9214;SDS011;4642;51.364;6.788;2022-10-16T07:43:05;5.93;;;1.90;;
9214;SDS011;4642;51.364;6.788;2022-10-16T07:45:31;2.47;;;1.67;;
9214;SDS011;4642;51.364;6.788;2022-10-16T07:47:56;4.20;;;1.87;;
9214;SDS011;4642;51.364;6.788;2022-10-16T07:50:22;6.17;;;1.70;;
9214;SDS011;4642;51.364;6.788;2022-10-16T07:52:47;4.00;;;2.20;;
9214;SDS011;4642;51.364;6.788;2022-10-16T07:55:13;2.93;;;1.83;;
9214;SDS011;4642;51.364;6.788;2022-10-16T07:57:38;3.23;;;2.30;;
9214;SDS011;4642;51.364;6.788;2022-10-16T08:00:04;3.77;;;2.07;;
9214;SDS011;4642;51.364;6.788;2022-10-16T08:02:31;3.93;;;1.87;;
9214;SDS011;4642;51.364;6.788;2022-10-16T08:04:56;7.67;;;2.00;;
9214;SDS011;4642;51.364;6.788;2022-10-16T08:07:22;4.43;;;1.93;;
9214;SDS011;4642;51.364;6.788;2022-10-16T08:09:50;3.67;;;2.07;;
9214;SDS011;4642;51.364;6.788;2022-10-16T08:12:16;4.43;;;1.40;;
9214;SDS011;4642;51.364;6.788;2022-10-16T08:14:42;1.90;;;1.57;;
9214;SDS011;4642;51.364;6.788;2022-10-16T08:17:07;2.70;;;1.90;;
9214;SDS011;4642;51.364;6.788;2022-10-16T08:19:33;2.10;;;1.60;;
9214;SDS011;4642;51.364;6.788;2022-10-16T08:21:59;3.83;;;1.70;;
9214;SDS011;4642;51.364;6.788;2022-10-16T08:24:25;5.00;;;1.57;;
9214;SDS011;4642;51.364;6.788;2022-10-16T08:26:53;2.27;;;1.43;;
9214;SDS011;4642;51.364;6.788;2022-10-16T08:29:19;2.87;;;1.30;;
9214;SDS011;4642;51.364;6.788;2022-10-16T08:31:44;4.67;;;1.40;;
9214;SDS011;4642;51.364;6.788;2022-10-16T08:34:10;1.77;;;1.07;;
9214;SDS011;4642;51.364;6.788;2022-10-16T08:36:35;2.17;;;1.07;;
9214;SDS011;4642;51.364;6.788;2022-10-16T08:39:01;2.70;;;1.03;;
9214;SDS011;4642;51.364;6.788;2022-10-16T08:41:40;4.30;;;1.20;;
9214;SDS011;4642;51.364;6.788;2022-10-16T08:44:23;2.90;;;1.00;;
9214;SDS011;4642;51.364;6.788;2022-10-16T08:47:01;2.63;;;1.03;;
9214;SDS011;4642;51.364;6.788;2022-10-16T08:49:27;2.27;;;1.20;;
9214;SDS011;4642;51.364;6.788;2022-10-16T08:51:55;7.50;;;1.13;;
9214;SDS011;4642;51.364;6.788;2022-10-16T08:54:29;3.33;;;1.00;;
9214;SDS011;4642;51.364;6.788;2022-10-16T08:57:19;1.10;;;0.93;;
9214;SDS011;4642;51.364;6.788;2022-10-16T08:59:45;4.20;;;1.00;;
9214;SDS011;4642;51.364;6.788;2022-10-16T09:02:24;2.27;;;1.30;;
9214;SDS011;4642;51.364;6.788;2022-10-16T09:05:38;1.30;;;0.80;;
9214;SDS011;4642;51.364;6.788;2022-10-16T09:08:20;2.50;;;1.10;;
9214;SDS011;4642;51.364;6.788;2022-10-16T09:11:24;4.57;;;1.20;;
9214;SDS011;4642;51.364;6.788;2022-10-16T09:14:17;3.07;;;1.10;;
9214;SDS011;4642;51.364;6.788;2022-10-16T09:16:53;2.73;;;1.10;;
9214;SDS011;4642;51.364;6.788;2022-10-16T09:19:33;5.77;;;1.13;;
9214;SDS011;4642;51.364;6.788;2022-10-16T09:22:13;1.57;;;1.10;;
9214;SDS011;4642;51.364;6.788;2022-10-16T09:24:40;2.13;;;0.90;;
9214;SDS011;4642;51.364;6.788;2022-10-16T09:27:12;1.00;;;0.90;;
9214;SDS011;4642;51.364;6.788;2022-10-16T09:29:39;1.90;;;0.90;;
9214;SDS011;4642;51.364;6.788;2022-10-16T09:32:15;1.77;;;0.80;;
9214;SDS011;4642;51.364;6.788;2022-10-16T09:34:47;1.40;;;0.77;;
9214;SDS011;4642;51.364;6.788;2022-10-16T09:37:19;3.47;;;0.83;;
9214;SDS011;4642;51.364;6.788;2022-10-16T09:39:48;2.80;;;0.90;;
9214;SDS011;4642;51.364;6.788;2022-10-16T09:42:16;2.00;;;0.83;;
9214;SDS011;4642;51.364;6.788;2022-10-16T09:44:46;2.57;;;0.70;;
9214;SDS011;4642;51.364;6.788;2022-10-16T09:47:23;2.67;;;0.70;;
9214;SDS011;4642;51.364;6.788;2022-10-16T09:49:54;3.23;;;0.80;;
9214;SDS011;4642;51.364;6.788;2022-10-16T09:52:24;1.03;;;0.60;;
9214;SDS011;4642;51.364;6.788;2022-10-16T09:54:59;1.27;;;0.80;;
9214;SDS011;4642;51.364;6.788;2022-10-16T09:57:48;1.73;;;0.80;;
9214;SDS011;4642;51.364;6.788;2022-10-16T10:00:15;1.83;;;0.73;;
9214;SDS011;4642;51.364;6.788;2022-10-16T10:02:43;1.67;;;0.60;;
9214;SDS011;4642;51.364;6.788;2022-10-16T10:05:22;2.97;;;0.70;;
9214;SDS011;4642;51.364;6.788;2022-10-16T10:07:54;2.07;;;0.67;;
9214;SDS011;4642;51.364;6.788;2022-10-16T10:10:23;2.10;;;0.77;;
9214;SDS011;4642;51.364;6.788;2022-10-16T10:12:54;1.80;;;0.63;;
9214;SDS011;4642;51.364;6.788;2022-10-16T10:15:20;2.67;;;0.87;;
9214;SDS011;4642;51.364;6.788;2022-10-16T10:17:50;2.77;;;0.70;;
9214;SDS011;4642;51.364;6.788;2022-10-16T10:20:26;2.93;;;0.80;;
9214;SDS011;4642;51.364;6.788;2022-10-16T10:22:59;0.87;;;0.60;;
9214;SDS011;4642;51.364;6.788;2022-10-16T10:25:30;2.50;;;0.50;;
9214;SDS011;4642;51.364;6.788;2022-10-16T10:31:04;3.27;;;0.93;;
9214;SDS011;4642;51.364;6.788;2022-10-16T10:33:47;0.90;;;0.60;;
9214;SDS011;4642;51.364;6.788;2022-10-16T10:36:39;2.47;;;0.63;;
9214;SDS011;4642;51.364;6.788;2022-10-16T10:39:12;2.77;;;0.67;;
9214;SDS011;4642;51.364;6.788;2022-10-16T10:41:56;5.30;;;0.70;;
9214;SDS011;4642;51.364;6.788;2022-10-16T10:56:26;0.83;;;0.50;;
9214;SDS011;4642;51.364;6.788;2022-10-16T11:02:05;4.27;;;0.73;;
9214;SDS011;4642;51.364;6.788;2022-10-16T11:04:49;3.53;;;0.83;;
9214;SDS011;4642;51.364;6.788;2022-10-16T11:07:45;2.57;;;0.77;;
9214;SDS011;4642;51.364;6.788;2022-10-16T11:10:19;1.40;;;0.50;;
9214;SDS011;4642;51.364;6.788;2022-10-16T11:12:48;2.00;;;1.00;;
9214;SDS011;4642;51.364;6.788;2022-10-16T11:15:29;3.43;;;0.73;;
9214;SDS011;4642;51.364;6.788;2022-10-16T11:18:08;4.87;;;0.90;;
9214;SDS011;4642;51.364;6.788;2022-10-16T11:21:00;2.30;;;0.90;;
9214;SDS011;4642;51.364;6.788;2022-10-16T11:23:33;1.13;;;0.57;;
9214;SDS011;4642;51.364;6.788;2022-10-16T11:26:16;4.90;;;0.67;;
9214;SDS011;4642;51.364;6.788;2022-10-16T11:28:55;1.87;;;0.63;;
9214;SDS011;4642;51.364;6.788;2022-10-16T11:31:34;2.03;;;0.80;;
9214;SDS011;4642;51.364;6.788;2022-10-16T11:34:03;2.00;;;0.63;;
9214;SDS011;4642;51.364;6.788;2022-10-16T11:36:42;2.37;;;0.80;;
9214;SDS011;4642;51.364;6.788;2022-10-16T11:49:32;1.10;;;0.53;;
9214;SDS011;4642;51.364;6.788;2022-10-16T11:52:05;3.70;;;1.13;;
9214;SDS011;4642;51.364;6.788;2022-10-16T11:57:39;1.13;;;0.77;;
9214;SDS011;4642;51.364;6.788;2022-10-16T12:05:22;3.10;;;0.73;;
9214;SDS011;4642;51.364;6.788;2022-10-16T12:08:01;2.37;;;0.50;;
9214;SDS011;4642;51.364;6.788;2022-10-16T12:10:28;5.57;;;0.73;;
9214;SDS011;4642;51.364;6.788;2022-10-16T12:12:57;3.20;;;0.70;;
9214;SDS011;4642;51.364;6.788;2022-10-16T12:15:30;3.97;;;0.90;;
9214;SDS011;4642;51.364;6.788;2022-10-16T12:17:57;5.13;;;0.90;;
9214;SDS011;4642;51.364;6.788;2022-10-16T12:20:27;3.93;;;0.63;;
9214;SDS011;4642;51.364;6.788;2022-10-16T12:23:01;3.03;;;0.80;;
9214;SDS011;4642;51.364;6.788;2022-10-16T12:28:05;3.20;;;1.03;;
9214;SDS011;4642;51.364;6.788;2022-10-16T12:30:43;5.20;;;0.93;;
9214;SDS011;4642;51.364;6.788;2022-10-16T12:33:22;1.03;;;0.70;;
9214;SDS011;4642;51.364;6.788;2022-10-16T12:35:52;1.93;;;0.70;;
9214;SDS011;4642;51.364;6.788;2022-10-16T12:41:10;1.60;;;0.60;;
9214;SDS011;4642;51.364;6.788;2022-10-16T12:43:44;2.13;;;0.63;;
9214;SDS011;4642;51.364;6.788;2022-10-16T12:48:37;2.87;;;0.50;;
9214;SDS011;4642;51.364;6.788;2022-10-16T12:53:37;6.97;;;1.17;;
9214;SDS011;4642;51.364;6.788;2022-10-16T12:58:49;1.57;;;0.57;;
9214;SDS011;4642;51.364;6.788;2022-10-16T13:01:29;1.47;;;0.50;;
9214;SDS011;4642;51.364;6.788;2022-10-16T13:04:21;1.53;;;0.70;;
9214;SDS011;4642;51.364;6.788;2022-10-16T13:09:46;2.37;;;1.13;;
9214;SDS011;4642;51.364;6.788;2022-10-16T13:23:32;2.30;;;1.10;;
9214;SDS011;4642;51.364;6.788;2022-10-16T13:28:59;2.83;;;0.70;;
9214;SDS011;4642;51.364;6.788;2022-10-16T13:31:26;1.77;;;0.60;;
9214;SDS011;4642;51.364;6.788;2022-10-16T13:33:53;1.27;;;0.60;;
9214;SDS011;4642;51.364;6.788;2022-10-16T13:36:25;2.00;;;0.77;;
9214;SDS011;4642;51.364;6.788;2022-10-16T13:39:12;1.63;;;0.50;;
9214;SDS011;4642;51.364;6.788;2022-10-16T13:41:42;1.87;;;0.60;;
9214;SDS011;4642;51.364;6.788;2022-10-16T13:44:12;1.43;;;0.83;;
9214;SDS011;4642;51.364;6.788;2022-10-16T13:46:42;1.00;;;0.50;;
9214;SDS011;4642;51.364;6.788;2022-10-16T13:49:12;1.67;;;0.60;;
9214;SDS011;4642;51.364;6.788;2022-10-16T13:51:40;0.93;;;0.60;;
9214;SDS011;4642;51.364;6.788;2022-10-16T13:54:07;1.73;;;0.73;;
9214;SDS011;4642;51.364;6.788;2022-10-16T13:56:34;2.13;;;0.50;;
9214;SDS011;4642;51.364;6.788;2022-10-16T13:59:01;1.83;;;0.60;;
9214;SDS011;4642;51.364;6.788;2022-10-16T14:01:31;1.90;;;0.63;;
9214;SDS011;4642;51.364;6.788;2022-10-16T14:04:18;1.43;;;0.50;;
9214;SDS011;4642;51.364;6.788;2022-10-16T14:06:44;1.07;;;0.53;;
9214;SDS011;4642;51.364;6.788;2022-10-16T14:11:59;2.40;;;0.50;;
9214;SDS011;4642;51.364;6.788;2022-10-16T14:14:30;1.73;;;0.70;;
9214;SDS011;4642;51.364;6.788;2022-10-16T14:17:05;1.33;;;0.60;;
9214;SDS011;4642;51.364;6.788;2022-10-16T14:19:37;1.87;;;0.60;;
9214;SDS011;4642;51.364;6.788;2022-10-16T14:22:03;0.97;;;0.47;;
9214;SDS011;4642;51.364;6.788;2022-10-16T14:24:59;1.00;;;0.80;;
9214;SDS011;4642;51.364;6.788;2022-10-16T14:27:28;3.10;;;0.80;;
9214;SDS011;4642;51.364;6.788;2022-10-16T14:32:33;2.03;;;0.57;;
9214;SDS011;4642;51.364;6.788;2022-10-16T14:34:59;3.43;;;0.70;;
9214;SDS011;4642;51.364;6.788;2022-10-16T14:37:25;4.63;;;0.90;;
9214;SDS011;4642;51.364;6.788;2022-10-16T14:39:53;3.97;;;0.70;;
9214;SDS011;4642;51.364;6.788;2022-10-16T14:42:20;2.80;;;0.50;;
9214;SDS011;4642;51.364;6.788;2022-10-16T14:44:50;1.77;;;0.50;;
9214;SDS011;4642;51.364;6.788;2022-10-16T14:47:21;1.07;;;0.47;;
9214;SDS011;4642;51.364;6.788;2022-10-16T14:49:51;1.13;;;0.40;;
9214;SDS011;4642;51.364;6.788;2022-10-16T14:52:19;0.73;;;0.53;;
9214;SDS011;4642;51.364;6.788;2022-10-16T14:54:47;1.97;;;0.70;;
9214;SDS011;4642;51.364;6.788;2022-10-16T14:57:23;1.33;;;0.60;;
9214;SDS011;4642;51.364;6.788;2022-10-16T14:59:51;2.20;;;0.60;;
9214;SDS011;4642;51.364;6.788;2022-10-16T15:04:46;2.07;;;0.60;;
9214;SDS011;4642;51.364;6.788;2022-10-16T15:07:12;2.97;;;0.67;;
9214;SDS011;4642;51.364;6.788;2022-10-16T15:09:37;0.63;;;0.43;;
9214;SDS011;4642;51.364;6.788;2022-10-16T15:12:03;2.00;;;0.60;;
9214;SDS011;4642;51.364;6.788;2022-10-16T15:14:28;2.00;;;0.70;;
9214;SDS011;4642;51.364;6.788;2022-10-16T15:16:54;1.30;;;0.80;;
9214;SDS011;4642;51.364;6.788;2022-10-16T15:19:19;2.87;;;0.80;;
9214;SDS011;4642;51.364;6.788;2022-10-16T15:21:45;4.90;;;0.67;;
9214;SDS011;4642;51.364;6.788;2022-10-16T15:24:12;5.37;;;0.60;;
9214;SDS011;4642;51.364;6.788;2022-10-16T15:26:38;1.33;;;0.50;;
9214;SDS011;4642;51.364;6.788;2022-10-16T15:29:04;8.13;;;1.10;;
9214;SDS011;4642;51.364;6.788;2022-10-16T15:31:30;2.30;;;0.70;;
9214;SDS011;4642;51.364;6.788;2022-10-16T15:33:56;3.23;;;0.70;;
9214;SDS011;4642;51.364;6.788;2022-10-16T15:36:29;2.93;;;0.50;;
9214;SDS011;4642;51.364;6.788;2022-10-16T15:38:58;2.30;;;0.60;;
9214;SDS011;4642;51.364;6.788;2022-10-16T15:41:24;2.10;;;0.70;;
9214;SDS011;4642;51.364;6.788;2022-10-16T15:43:49;2.10;;;0.70;;
9214;SDS011;4642;51.364;6.788;2022-10-16T15:46:17;6.20;;;0.70;;
9214;SDS011;4642;51.364;6.788;2022-10-16T15:48:44;2.13;;;0.53;;
9214;SDS011;4642;51.364;6.788;2022-10-16T15:51:10;3.77;;;0.57;;
9214;SDS011;4642;51.364;6.788;2022-10-16T15:53:36;2.20;;;0.50;;
9214;SDS011;4642;51.364;6.788;2022-10-16T15:56:02;1.10;;;0.70;;
9214;SDS011;4642;51.364;6.788;2022-10-16T15:58:29;2.13;;;0.60;;
9214;SDS011;4642;51.364;6.788;2022-10-16T16:00:58;3.17;;;0.97;;
9214;SDS011;4642;51.364;6.788;2022-10-16T16:03:28;6.57;;;1.00;;
9214;SDS011;4642;51.364;6.788;2022-10-16T16:05:54;2.23;;;0.80;;
9214;SDS011;4642;51.364;6.788;2022-10-16T16:08:20;1.90;;;1.00;;
9214;SDS011;4642;51.364;6.788;2022-10-16T16:10:56;2.63;;;0.80;;
9214;SDS011;4642;51.364;6.788;2022-10-16T16:13:26;2.83;;;0.80;;
9214;SDS011;4642;51.364;6.788;2022-10-16T16:15:51;1.73;;;0.60;;
9214;SDS011;4642;51.364;6.788;2022-10-16T16:18:17;4.00;;;1.57;;
9214;SDS011;4642;51.364;6.788;2022-10-16T16:20:43;4.27;;;1.00;;
9214;SDS011;4642;51.364;6.788;2022-10-16T16:23:08;2.80;;;0.93;;
9214;SDS011;4642;51.364;6.788;2022-10-16T16:25:34;3.40;;;0.50;;
9214;SDS011;4642;51.364;6.788;2022-10-16T16:27:59;5.90;;;1.00;;
9214;SDS011;4642;51.364;6.788;2022-10-16T16:30:25;4.57;;;0.80;;
9214;SDS011;4642;51.364;6.788;2022-10-16T16:32:51;5.13;;;0.73;;
9214;SDS011;4642;51.364;6.788;2022-10-16T16:35:16;4.30;;;1.00;;
9214;SDS011;4642;51.364;6.788;2022-10-16T16:37:42;7.00;;;0.90;;
9214;SDS011;4642;51.364;6.788;2022-10-16T16:40:07;4.73;;;0.40;;
9214;SDS011;4642;51.364;6.788;2022-10-16T16:42:33;1.07;;;0.60;;
9214;SDS011;4642;51.364;6.788;2022-10-16T16:44:58;1.13;;;0.63;;
9214;SDS011;4642;51.364;6.788;2022-10-16T16:47:24;2.83;;;0.70;;
9214;SDS011;4642;51.364;6.788;2022-10-16T16:49:50;3.67;;;0.80;;
9214;SDS011;4642;51.364;6.788;2022-10-16T16:52:16;4.93;;;0.70;;